createdAt,value
2023-05-10T00:00:55.520Z,75.05
2023-05-10T00:01:56.387Z,75.78
2023-05-10T00:02:55.677Z,77.60
2023-05-10T00:03:55.740Z,78.30
2023-05-10T00:04:55.750Z,78.66
2023-05-10T00:05:55.796Z,78.44
2023-05-10T00:06:55.855Z,82.10
2023-05-10T00:07:55.881Z,81.52
2023-05-10T00:08:55.915Z,81.62
2023-05-10T00:09:55.945Z,80.16
2023-05-10T00:10:55.990Z,82.41
2023-05-10T00:11:56.049Z,83.23
2023-05-10T00:12:56.162Z,83.76
2023-05-10T00:13:56.133Z,81.71
2023-05-10T00:14:56.174Z,83.01
2023-05-10T00:15:56.230Z,80.25
2023-05-10T00:16:56.300Z,80.28
2023-05-10T00:17:56.352Z,80.38
2023-05-10T00:18:56.397Z,78.89
2023-05-10T00:19:56.451Z,82.63
2023-05-10T00:20:56.455Z,81.95
2023-05-10T00:21:56.532Z,80.97
2023-05-10T00:22:56.581Z,81.96
2023-05-10T00:23:56.598Z,80.41
2023-05-10T00:24:56.692Z,82.25
2023-05-10T00:25:56.725Z,82.81
2023-05-10T00:26:56.725Z,80.94
2023-05-10T00:27:56.823Z,81.02
2023-05-10T00:28:56.820Z,78.52
2023-05-10T00:29:56.885Z,80.11
2023-05-10T00:30:56.941Z,81.57
2023-05-10T00:31:57.034Z,83.01
2023-05-10T00:32:57.072Z,81.70
2023-05-10T00:33:57.051Z,84.16
2023-05-10T00:34:57.121Z,84.43
2023-05-10T00:35:57.147Z,81.09
2023-05-10T00:36:57.243Z,82.61
2023-05-10T00:37:57.295Z,85.26
2023-05-10T00:38:57.329Z,81.33
2023-05-10T00:39:57.351Z,80.28
2023-05-10T00:40:57.415Z,80.63
2023-05-10T00:41:57.452Z,83.50
2023-05-10T00:42:57.490Z,84.08
2023-05-10T00:43:57.542Z,83.39
2023-05-10T00:44:57.606Z,80.40
2023-05-10T00:45:57.657Z,77.65
2023-05-10T00:46:57.645Z,73.83
2023-05-10T00:47:57.708Z,73.16
2023-05-10T00:48:57.771Z,69.55
2023-05-10T00:49:57.805Z,71.19
2023-05-10T00:50:57.836Z,70.86
2023-05-10T00:51:57.902Z,69.98
2023-05-10T00:52:57.943Z,70.70
2023-05-10T00:53:57.973Z,72.18
2023-05-10T00:54:58.022Z,70.78
2023-05-10T00:55:58.096Z,70.27
2023-05-10T00:56:58.147Z,74.45
2023-05-10T00:57:58.206Z,70.95
2023-05-10T00:58:58.224Z,72.04
2023-05-10T00:59:58.263Z,77.10
2023-05-10T01:00:58.334Z,83.39
2023-05-10T01:01:58.350Z,86.67
2023-05-10T01:02:58.480Z,86.46
2023-05-10T01:03:58.432Z,76.10
2023-05-10T01:04:58.485Z,70.18
2023-05-10T01:05:58.535Z,70.13
2023-05-10T01:06:58.550Z,68.87
2023-05-10T01:07:58.596Z,69.06
2023-05-10T01:08:58.655Z,69.47
2023-05-10T01:09:58.699Z,71.63
2023-05-10T01:10:58.708Z,73.85
2023-05-10T01:11:58.813Z,76.93
2023-05-10T01:12:58.814Z,79.70
2023-05-10T01:13:58.851Z,83.91
2023-05-10T01:14:58.890Z,84.49
2023-05-10T01:15:58.963Z,82.75
2023-05-10T01:16:59.001Z,84.56
2023-05-10T01:17:59.053Z,82.61
2023-05-10T01:18:59.066Z,80.55
2023-05-10T01:19:59.040Z,79.80
2023-05-10T01:20:59.079Z,80.63
2023-05-10T01:21:59.125Z,81.55
2023-05-10T01:22:59.159Z,84.99
2023-05-10T01:23:59.177Z,94.38
2023-05-10T01:24:59.194Z,105.58
2023-05-10T01:25:59.243Z,114.08
2023-05-10T01:26:59.301Z,119.27
2023-05-10T01:27:59.343Z,125.04
2023-05-10T01:28:59.367Z,130.26
2023-05-10T01:30:14.243Z,135.29
2023-05-10T01:31:00.364Z,135.63
2023-05-10T01:31:59.351Z,137.37
2023-05-10T01:32:59.333Z,140.49
2023-05-10T01:33:59.302Z,146.98
2023-05-10T01:34:59.282Z,157.44
2023-05-10T01:35:59.250Z,161.87
2023-05-10T01:36:59.250Z,159.77
2023-05-10T01:37:59.242Z,161.60
2023-05-10T01:38:59.190Z,162.54
2023-05-10T01:39:59.189Z,166.32
2023-05-10T01:40:59.170Z,168.07
2023-05-10T01:41:59.145Z,166.81
2023-05-10T01:42:59.149Z,167.58
2023-05-10T01:43:59.127Z,169.42
2023-05-10T01:44:59.097Z,170.06
2023-05-10T01:45:59.067Z,169.37
2023-05-10T01:46:59.174Z,172.46
2023-05-10T01:47:59.079Z,172.36
2023-05-10T01:48:59.001Z,169.88
2023-05-10T01:49:58.999Z,174.08
2023-05-10T01:50:59.010Z,171.80
2023-05-10T01:51:59.046Z,174.26
2023-05-10T01:52:59.077Z,175.18
2023-05-10T01:53:59.054Z,163.18
2023-05-10T01:54:59.080Z,149.91
2023-05-10T01:55:59.052Z,148.86
2023-05-10T01:56:59.087Z,155.12
2023-05-10T01:57:59.082Z,159.41
2023-05-10T01:58:59.086Z,152.97
2023-05-10T01:59:59.096Z,146.37
2023-05-10T02:00:59.103Z,141.10
2023-05-10T02:01:59.091Z,151.19
2023-05-10T02:02:59.118Z,153.25
2023-05-10T02:03:59.126Z,146.24
2023-05-10T02:04:59.109Z,141.52
2023-05-10T02:05:59.109Z,140.46
2023-05-10T02:06:59.092Z,148.38
2023-05-10T02:07:59.099Z,144.39
2023-05-10T02:08:59.087Z,144.29
2023-05-10T02:09:59.098Z,143.21
2023-05-10T02:10:59.107Z,141.08
2023-05-10T02:11:59.084Z,144.78
2023-05-10T02:12:59.126Z,144.74
2023-05-10T02:13:59.092Z,145.93
2023-05-10T02:14:59.100Z,146.91
2023-05-10T02:15:59.123Z,144.70
2023-05-10T02:16:59.257Z,133.90
2023-05-10T02:17:59.228Z,116.12
2023-05-10T02:18:59.134Z,109.95
2023-05-10T02:19:59.130Z,102.51
2023-05-10T02:20:59.134Z,97.65
2023-05-10T02:21:59.143Z,89.01
2023-05-10T02:22:59.195Z,81.55
2023-05-10T02:23:59.167Z,77.01
2023-05-10T02:24:59.182Z,80.67
2023-05-10T02:25:59.194Z,87.30
2023-05-10T02:26:59.223Z,87.82
2023-05-10T02:27:59.225Z,92.70
2023-05-10T02:28:59.230Z,93.80
2023-05-10T02:29:59.242Z,90.94
2023-05-10T02:30:59.246Z,92.13
2023-05-10T02:31:59.289Z,89.88
2023-05-10T02:32:59.310Z,85.93
2023-05-10T02:33:59.269Z,83.88
2023-05-10T02:34:59.286Z,79.63
2023-05-10T02:35:59.299Z,81.49
2023-05-10T02:36:59.293Z,79.35
2023-05-10T02:37:59.332Z,72.33
2023-05-10T02:38:59.348Z,67.72
2023-05-10T02:39:59.319Z,63.17
2023-05-10T02:40:59.370Z,58.25
2023-05-10T02:41:59.378Z,53.52
2023-05-10T02:42:59.414Z,53.70
2023-05-10T02:43:59.426Z,53.03
2023-05-10T02:44:59.424Z,50.48
2023-05-10T02:45:59.465Z,50.63
2023-05-10T02:46:59.472Z,51.22
2023-05-10T02:47:59.579Z,55.08
2023-05-10T02:48:59.539Z,61.38
2023-05-10T02:49:59.556Z,62.59
2023-05-10T02:50:59.565Z,62.18
2023-05-10T02:51:59.605Z,58.74
2023-05-10T02:52:59.611Z,54.12
2023-05-10T02:53:59.648Z,56.90
2023-05-10T02:54:59.684Z,59.64
2023-05-10T02:55:59.694Z,56.39
2023-05-10T02:56:59.738Z,52.58
2023-05-10T02:57:59.774Z,50.83
2023-05-10T02:58:59.828Z,51.62
2023-05-10T02:59:59.825Z,51.73
2023-05-10T03:00:59.873Z,52.64
2023-05-10T03:01:59.875Z,53.87
2023-05-10T03:02:59.952Z,53.68
2023-05-10T03:03:59.923Z,53.67
2023-05-10T03:05:00.006Z,55.74
2023-05-10T03:05:59.974Z,58.16
2023-05-10T03:07:00.225Z,63.12
2023-05-10T03:07:59.992Z,67.97
2023-05-10T03:08:59.971Z,69.38
2023-05-10T03:09:59.988Z,70.40
2023-05-10T03:10:59.964Z,68.59
2023-05-10T03:11:59.975Z,69.66
2023-05-10T03:13:00.098Z,69.83
2023-05-10T03:14:00.014Z,71.75
2023-05-10T03:15:00.055Z,74.86
2023-05-10T03:16:00.082Z,75.51
2023-05-10T03:17:00.029Z,71.84
2023-05-10T03:18:00.115Z,70.54
2023-05-10T03:19:00.145Z,74.76
2023-05-10T03:20:00.127Z,78.95
2023-05-10T03:21:00.114Z,82.88
2023-05-10T03:22:00.164Z,87.27
2023-05-10T03:23:00.141Z,93.39
2023-05-10T03:24:00.201Z,95.14
2023-05-10T03:25:00.156Z,93.75
2023-05-10T03:26:00.153Z,94.88
2023-05-10T03:27:00.174Z,97.74
2023-05-10T03:28:00.202Z,96.07
2023-05-10T03:29:00.147Z,98.43
2023-05-10T03:30:00.206Z,98.81
2023-05-10T03:31:00.241Z,103.40
2023-05-10T03:32:00.151Z,105.03
2023-05-10T03:33:00.233Z,106.72
2023-05-10T03:34:00.163Z,108.49
2023-05-10T03:35:00.175Z,110.88
2023-05-10T03:36:00.163Z,111.80
2023-05-10T03:37:00.176Z,111.85
2023-05-10T03:38:00.135Z,116.05
2023-05-10T03:39:00.172Z,116.81
2023-05-10T03:40:00.179Z,117.06
2023-05-10T03:41:00.116Z,115.60
2023-05-10T03:42:00.155Z,113.07
2023-05-10T03:43:00.163Z,113.00
2023-05-10T03:44:00.127Z,108.53
2023-05-10T03:45:00.142Z,104.24
2023-05-10T03:46:00.146Z,90.47
2023-05-10T03:47:00.211Z,78.77
2023-05-10T03:48:00.184Z,69.50
2023-05-10T03:49:00.142Z,64.80
2023-05-10T03:50:00.402Z,55.71
2023-05-10T03:51:00.128Z,52.39
2023-05-10T03:52:00.167Z,53.48
2023-05-10T03:53:00.171Z,52.30
2023-05-10T03:54:00.195Z,49.07
2023-05-10T03:55:00.201Z,49.00
2023-05-10T03:56:00.185Z,48.28
2023-05-10T03:57:00.269Z,49.73
2023-05-10T03:58:00.220Z,49.45
2023-05-10T03:59:00.238Z,49.36
2023-05-10T04:00:00.267Z,48.13
2023-05-10T04:01:00.294Z,47.41
2023-05-10T04:02:00.383Z,45.16
2023-05-10T04:03:00.435Z,44.69
2023-05-10T04:04:00.375Z,43.78
2023-05-10T04:05:00.335Z,41.42
2023-05-10T04:06:00.377Z,38.75
2023-05-10T04:07:00.424Z,41.25
2023-05-10T04:08:00.462Z,44.18
2023-05-10T04:09:00.431Z,44.35
2023-05-10T04:10:00.480Z,46.65
2023-05-10T04:11:00.519Z,49.53
2023-05-10T04:12:00.537Z,51.40
2023-05-10T04:13:00.590Z,52.39
2023-05-10T04:14:00.567Z,54.68
2023-05-10T04:15:00.573Z,52.66
2023-05-10T04:16:00.597Z,52.48
2023-05-10T04:17:00.619Z,47.00
2023-05-10T04:18:00.648Z,42.67
2023-05-10T04:19:00.643Z,41.78
2023-05-10T04:20:00.631Z,39.63
2023-05-10T04:21:00.667Z,44.14
2023-05-10T04:22:00.691Z,45.76
2023-05-10T04:23:00.704Z,46.48
2023-05-10T04:24:00.685Z,46.40
2023-05-10T04:25:00.736Z,46.11
2023-05-10T04:26:00.732Z,43.32
2023-05-10T04:27:00.778Z,41.93
2023-05-10T04:28:00.787Z,44.28
2023-05-10T04:29:00.806Z,45.60
2023-05-10T04:30:00.797Z,50.74
2023-05-10T04:31:00.818Z,51.69
2023-05-10T04:32:00.819Z,48.36
2023-05-10T04:33:00.884Z,47.82
2023-05-10T04:34:00.842Z,49.26
2023-05-10T04:35:00.857Z,51.28
2023-05-10T04:36:00.828Z,49.12
2023-05-10T04:37:00.874Z,49.07
2023-05-10T04:38:00.881Z,50.42
2023-05-10T04:39:00.871Z,49.57
2023-05-10T04:40:00.885Z,50.57
2023-05-10T04:41:00.887Z,54.92
2023-05-10T04:42:00.908Z,55.49
2023-05-10T04:43:00.895Z,52.47
2023-05-10T04:44:00.909Z,53.63
2023-05-10T04:45:00.906Z,53.10
2023-05-10T04:46:00.922Z,57.13
2023-05-10T04:47:00.892Z,54.41
2023-05-10T04:48:00.939Z,47.58
2023-05-10T04:49:00.935Z,47.16
2023-05-10T04:50:00.910Z,49.49
2023-05-10T04:51:00.956Z,48.21
2023-05-10T04:52:00.932Z,46.72
2023-05-10T04:53:00.927Z,44.04
2023-05-10T04:54:06.656Z,43.47
2023-05-10T04:55:01.898Z,43.47
2023-05-10T04:56:00.869Z,42.24
2023-05-10T04:57:00.853Z,41.47
2023-05-10T04:58:00.843Z,38.17
2023-05-10T04:59:00.803Z,38.26
2023-05-10T05:00:00.758Z,39.96
2023-05-10T05:01:07.730Z,40.52
2023-05-10T05:02:00.831Z,40.53
2023-05-10T05:03:00.754Z,40.05
2023-05-10T05:04:00.831Z,35.80
2023-05-10T05:05:01.481Z,34.39
2023-05-10T05:06:00.631Z,36.00
2023-05-10T05:07:00.609Z,39.13
2023-05-10T05:08:00.610Z,39.50
2023-05-10T05:09:00.586Z,37.57
2023-05-10T05:10:00.548Z,35.79
2023-05-10T05:11:00.546Z,36.41
2023-05-10T05:12:00.496Z,35.00
2023-05-10T05:13:00.569Z,34.19
2023-05-10T05:14:00.501Z,33.02
2023-05-10T05:15:00.458Z,32.88
2023-05-10T05:16:00.432Z,35.64
2023-05-10T05:17:00.399Z,35.50
2023-05-10T05:18:00.367Z,33.60
2023-05-10T05:19:00.338Z,32.89
2023-05-10T05:20:00.317Z,32.58
2023-05-10T05:21:00.293Z,33.27
2023-05-10T05:22:00.335Z,33.42
2023-05-10T05:23:00.235Z,34.08
2023-05-10T05:24:00.208Z,33.57
2023-05-10T05:25:00.161Z,33.57
2023-05-10T05:26:00.151Z,34.53
2023-05-10T05:27:00.178Z,34.08
2023-05-10T05:28:00.139Z,35.38
2023-05-10T05:29:00.096Z,38.32
2023-05-10T05:30:00.053Z,38.49
2023-05-10T05:31:00.068Z,38.38
2023-05-10T05:32:00.302Z,39.30
2023-05-10T05:33:00.025Z,47.74
2023-05-10T05:34:00.017Z,58.69
2023-05-10T05:34:59.973Z,61.88
2023-05-10T05:35:59.889Z,64.26
2023-05-10T05:36:59.884Z,67.73
2023-05-10T05:37:59.851Z,77.08
2023-05-10T05:39:00.005Z,92.74
2023-05-10T05:39:59.796Z,112.96
2023-05-10T05:40:59.832Z,117.56
2023-05-10T05:41:59.866Z,122.16
2023-05-10T05:43:00.517Z,135.98
2023-05-10T05:44:00.047Z,140.87
2023-05-10T05:44:59.923Z,132.73
2023-05-10T05:46:07.048Z,136.05
2023-05-10T05:46:59.918Z,136.46
2023-05-10T05:47:59.931Z,136.32
2023-05-10T05:49:00.125Z,129.45
2023-05-10T05:49:59.832Z,120.74
2023-05-10T05:50:59.832Z,121.68
2023-05-10T05:51:59.785Z,123.51
2023-05-10T05:52:59.792Z,137.83
2023-05-10T05:54:00.093Z,125.31
2023-05-10T05:54:59.697Z,117.15
2023-05-10T05:55:59.687Z,97.37
2023-05-10T05:57:01.192Z,114.20
2023-05-10T05:57:59.690Z,153.30
2023-05-10T05:58:59.596Z,165.33
2023-05-10T05:59:59.570Z,129.00
2023-05-10T06:00:59.614Z,107.48
2023-05-10T06:01:59.604Z,87.31
2023-05-10T06:02:59.656Z,71.06
2023-05-10T06:03:59.571Z,71.80
2023-05-10T06:04:59.459Z,75.15
2023-05-10T06:05:59.497Z,80.90
2023-05-10T06:06:59.449Z,77.19
2023-05-10T06:07:59.434Z,73.39
2023-05-10T06:08:59.432Z,69.76
2023-05-10T06:09:59.379Z,70.23
2023-05-10T06:10:59.993Z,66.00
2023-05-10T06:11:59.396Z,68.87
2023-05-10T06:12:59.469Z,69.30
2023-05-10T06:13:59.518Z,66.01
2023-05-10T06:14:59.481Z,67.01
2023-05-10T06:15:59.523Z,67.07
2023-05-10T06:16:59.588Z,68.51
2023-05-10T06:17:59.677Z,63.67
2023-05-10T06:18:59.671Z,58.90
2023-05-10T06:19:59.775Z,56.27
2023-05-10T06:20:59.724Z,48.94
2023-05-10T06:22:00.592Z,50.67
2023-05-10T06:22:59.850Z,53.98
2023-05-10T06:23:59.837Z,50.78
2023-05-10T06:24:59.872Z,48.02
2023-05-10T06:25:59.896Z,51.86
2023-05-10T06:26:59.920Z,48.28
2023-05-10T06:27:59.949Z,42.02
2023-05-10T06:29:00.134Z,44.75
2023-05-10T06:30:11.832Z,50.68
2023-05-10T06:31:01.091Z,50.92
2023-05-10T06:32:00.027Z,52.10
2023-05-10T06:33:00.060Z,54.59
2023-05-10T06:33:59.959Z,60.17
2023-05-10T06:34:59.971Z,64.22
2023-05-10T06:35:59.927Z,65.75
2023-05-10T06:36:59.911Z,68.67
2023-05-10T06:37:59.905Z,67.20
2023-05-10T06:38:59.913Z,67.71
2023-05-10T06:39:59.887Z,59.56
2023-05-10T06:40:59.915Z,53.53
2023-05-10T06:41:59.990Z,57.26
2023-05-10T06:43:00.133Z,59.72
2023-05-10T06:44:00.168Z,57.54
2023-05-10T06:45:00.267Z,49.68
2023-05-10T06:46:00.281Z,47.96
2023-05-10T06:47:00.280Z,49.80
2023-05-10T06:48:00.374Z,51.32
2023-05-10T06:49:00.358Z,50.66
2023-05-10T06:50:00.803Z,46.89
2023-05-10T06:51:00.437Z,49.31
2023-05-10T06:52:00.497Z,47.46
2023-05-10T06:53:00.506Z,48.04
2023-05-10T06:54:00.612Z,49.60
2023-05-10T06:55:00.642Z,50.08
2023-05-10T06:56:00.706Z,49.61
2023-05-10T06:57:01.843Z,48.87
2023-05-10T06:58:00.793Z,46.06
2023-05-10T06:59:00.816Z,47.60
2023-05-10T07:00:00.984Z,49.46
2023-05-10T07:01:00.955Z,46.30
2023-05-10T07:02:01.033Z,45.54
2023-05-10T07:03:01.081Z,50.16
2023-05-10T07:04:01.061Z,46.20
2023-05-10T07:05:03.210Z,38.53
2023-05-10T07:06:01.203Z,35.53
2023-05-10T07:07:01.269Z,34.25
2023-05-10T07:08:01.322Z,33.19
2023-05-10T07:09:01.404Z,26.84
2023-05-10T07:10:01.394Z,28.42
2023-05-10T07:11:01.460Z,28.70
2023-05-10T07:12:01.507Z,22.62
2023-05-10T07:13:01.643Z,21.19
2023-05-10T07:14:01.565Z,21.88
2023-05-10T07:15:01.602Z,20.81
2023-05-10T07:16:01.662Z,17.78
2023-05-10T07:17:01.738Z,16.16
2023-05-10T07:18:01.908Z,15.49
2023-05-10T07:19:01.819Z,16.42
2023-05-10T07:20:01.804Z,17.35
2023-05-10T07:21:01.922Z,17.11
2023-05-10T07:22:01.943Z,18.55
2023-05-10T07:23:01.998Z,17.35
2023-05-10T07:24:02.062Z,17.35
2023-05-10T07:25:02.108Z,17.10
2023-05-10T07:26:02.086Z,16.21
2023-05-10T07:27:02.095Z,14.06
2023-05-10T07:28:02.162Z,12.42
2023-05-10T07:29:02.166Z,12.37
2023-05-10T07:30:02.578Z,12.77
2023-05-10T07:31:02.337Z,13.79
2023-05-10T07:32:02.360Z,14.47
2023-05-10T07:33:02.334Z,14.53
2023-05-10T07:34:02.325Z,14.30
2023-05-10T07:35:02.346Z,13.12
2023-05-10T07:36:02.310Z,11.29
2023-05-10T07:37:02.379Z,10.19
2023-05-10T07:38:02.359Z,10.32
2023-05-10T07:39:02.358Z,10.90
2023-05-10T07:40:02.346Z,10.65
2023-05-10T07:41:02.318Z,10.59
2023-05-10T07:42:02.319Z,11.05
2023-05-10T07:43:02.339Z,11.49
2023-05-10T07:44:02.360Z,11.30
2023-05-10T07:45:02.378Z,11.46
2023-05-10T07:46:02.402Z,11.60
2023-05-10T07:47:02.366Z,10.17
2023-05-10T07:48:02.443Z,10.19
2023-05-10T07:49:02.340Z,11.61
2023-05-10T07:50:02.341Z,11.74
2023-05-10T07:51:02.394Z,11.05
2023-05-10T07:52:02.349Z,9.47
2023-05-10T07:53:02.375Z,8.86
2023-05-10T07:54:02.383Z,8.20
2023-05-10T07:55:02.414Z,8.62
2023-05-10T07:56:02.427Z,9.29
2023-05-10T07:57:02.366Z,9.48
2023-05-10T07:58:02.396Z,8.79
2023-05-10T07:59:02.393Z,8.37
2023-05-10T08:00:02.585Z,8.33
2023-05-10T08:01:02.411Z,7.55
2023-05-10T08:02:02.424Z,7.20
2023-05-10T08:03:02.502Z,6.65
2023-05-10T08:04:02.736Z,7.13
2023-05-10T08:05:02.439Z,8.04
2023-05-10T08:06:02.420Z,8.67
2023-05-10T08:07:02.434Z,9.47
2023-05-10T08:08:02.451Z,8.95
2023-05-10T08:09:02.510Z,8.17
2023-05-10T08:10:02.480Z,7.52
2023-05-10T08:11:02.517Z,7.20
2023-05-10T08:12:02.531Z,6.92
2023-05-10T08:13:02.547Z,7.59
2023-05-10T08:14:02.571Z,7.98
2023-05-10T08:15:02.597Z,8.22
2023-05-10T08:16:02.630Z,8.77
2023-05-10T08:17:02.642Z,9.49
2023-05-10T08:18:02.714Z,9.82
2023-05-10T08:19:02.822Z,9.47
2023-05-10T08:20:02.705Z,9.89
2023-05-10T08:21:03.586Z,9.95
2023-05-10T08:22:02.737Z,10.59
2023-05-10T08:23:02.747Z,10.85
2023-05-10T08:24:02.721Z,12.26
2023-05-10T08:25:03.136Z,12.81
2023-05-10T08:26:02.783Z,12.90
2023-05-10T08:27:02.821Z,13.61
2023-05-10T08:28:02.827Z,17.96
2023-05-10T08:29:02.908Z,35.56
2023-05-10T08:30:02.952Z,41.70
2023-05-10T08:31:03.118Z,61.81
2023-05-10T08:32:02.895Z,60.16
2023-05-10T08:33:02.950Z,77.59
2023-05-10T08:34:02.933Z,85.14
2023-05-10T08:35:02.941Z,103.00
2023-05-10T08:36:02.954Z,114.49
2023-05-10T08:37:02.946Z,115.95
2023-05-10T08:38:02.955Z,112.71
2023-05-10T08:39:02.985Z,101.56
2023-05-10T08:40:03.003Z,104.05
2023-05-10T08:41:03.035Z,82.52
2023-05-10T08:42:03.054Z,70.26
2023-05-10T08:43:03.084Z,54.61
2023-05-10T08:44:03.189Z,59.38
2023-05-10T08:45:03.241Z,66.49
2023-05-10T08:46:03.299Z,70.81
2023-05-10T08:47:03.385Z,71.40
2023-05-10T08:48:03.380Z,75.60
2023-05-10T08:49:03.343Z,81.83
2023-05-10T08:50:03.412Z,81.60
2023-05-10T08:51:03.629Z,69.30
2023-05-10T08:52:03.462Z,49.79
2023-05-10T08:53:03.530Z,42.55
2023-05-10T08:54:03.588Z,38.34
2023-05-10T08:55:03.580Z,36.93
2023-05-10T08:56:03.643Z,36.81
2023-05-10T08:57:03.677Z,37.03
2023-05-10T08:58:03.672Z,34.75
2023-05-10T08:59:03.745Z,34.89
2023-05-10T09:00:03.751Z,34.35
2023-05-10T09:01:04.142Z,31.51
2023-05-10T09:02:03.849Z,30.96
2023-05-10T09:03:03.870Z,28.92
2023-05-10T09:04:03.885Z,28.07
2023-05-10T09:05:04.043Z,26.99
2023-05-10T09:06:04.122Z,37.60
2023-05-10T09:07:03.976Z,48.06
2023-05-10T09:08:04.040Z,56.61
2023-05-10T09:09:04.054Z,63.67
2023-05-10T09:10:04.116Z,68.07
2023-05-10T09:11:04.165Z,75.03
2023-05-10T09:12:04.116Z,75.19
2023-05-10T09:13:04.200Z,73.54
2023-05-10T09:14:04.162Z,71.10
2023-05-10T09:15:04.198Z,70.09
2023-05-10T09:16:19.802Z,68.95
2023-05-10T09:17:05.318Z,69.08
2023-05-10T09:18:04.190Z,69.37
2023-05-10T09:19:04.285Z,69.06
2023-05-10T09:20:04.127Z,69.01
2023-05-10T09:21:04.182Z,65.76
2023-05-10T09:22:04.160Z,61.60
2023-05-10T09:23:04.212Z,59.99
2023-05-10T09:24:04.208Z,57.76
2023-05-10T09:25:04.216Z,59.39
2023-05-10T09:26:04.633Z,59.42
2023-05-10T09:27:04.224Z,57.00
2023-05-10T09:28:04.246Z,54.06
2023-05-10T09:29:04.244Z,54.94
2023-05-10T09:30:04.276Z,54.22
2023-05-10T09:31:04.705Z,52.79
2023-05-10T09:32:04.261Z,54.34
2023-05-10T09:33:04.383Z,52.64
2023-05-10T09:34:04.338Z,54.75
2023-05-10T09:35:04.328Z,52.76
2023-05-10T09:36:04.348Z,52.23
2023-05-10T09:37:04.359Z,52.10
2023-05-10T09:38:04.365Z,52.95
2023-05-10T09:39:04.362Z,55.88
2023-05-10T09:40:04.391Z,56.79
2023-05-10T09:41:04.651Z,60.08
2023-05-10T09:42:04.405Z,64.29
2023-05-10T09:43:04.486Z,61.87
2023-05-10T09:44:04.393Z,62.76
2023-05-10T09:45:04.416Z,55.04
2023-05-10T09:46:04.415Z,59.47
2023-05-10T09:47:04.421Z,66.53
2023-05-10T09:48:04.439Z,50.75
2023-05-10T09:49:04.380Z,42.32
2023-05-10T09:50:04.397Z,47.35
2023-05-10T09:51:04.370Z,43.33
2023-05-10T09:52:04.356Z,42.36
2023-05-10T09:53:04.429Z,38.31
2023-05-10T09:54:04.365Z,36.84
2023-05-10T09:55:04.426Z,36.50
2023-05-10T09:56:04.442Z,35.13
2023-05-10T09:57:04.430Z,34.78
2023-05-10T09:58:04.418Z,31.22
2023-05-10T09:59:04.455Z,27.19
2023-05-10T10:00:04.489Z,26.40
2023-05-10T10:01:04.708Z,25.14
2023-05-10T10:02:04.586Z,24.96
2023-05-10T10:03:04.594Z,25.00
2023-05-10T10:04:04.558Z,25.68
2023-05-10T10:05:04.698Z,25.24
2023-05-10T10:06:04.631Z,26.88
2023-05-10T10:07:04.796Z,26.83
2023-05-10T10:08:04.699Z,26.50
2023-05-10T10:09:04.680Z,26.22
2023-05-10T10:10:04.750Z,25.39
2023-05-10T10:11:05.165Z,25.41
2023-05-10T10:12:04.797Z,23.50
2023-05-10T10:13:04.822Z,23.14
2023-05-10T10:14:04.827Z,21.91
2023-05-10T10:15:04.867Z,23.35
2023-05-10T10:16:05.831Z,22.43
2023-05-10T10:17:07.331Z,19.62
2023-05-10T10:18:04.925Z,17.81
2023-05-10T10:19:04.948Z,16.65
2023-05-10T10:20:04.871Z,15.67
2023-05-10T10:21:04.865Z,13.99
2023-05-10T10:22:05.649Z,11.56
2023-05-10T10:23:04.830Z,10.57
2023-05-10T10:24:04.847Z,9.40
2023-05-10T10:25:04.819Z,9.69
2023-05-10T10:26:04.810Z,12.03
2023-05-10T10:27:05.166Z,12.97
2023-05-10T10:28:04.772Z,11.49
2023-05-10T10:29:04.754Z,10.48
2023-05-10T10:30:04.756Z,9.89
2023-05-10T10:31:04.805Z,7.49
2023-05-10T10:32:04.735Z,5.32
2023-05-10T10:33:10.364Z,4.78
2023-05-10T10:34:05.737Z,4.80
2023-05-10T10:35:04.716Z,4.83
2023-05-10T10:36:04.757Z,4.84
2023-05-10T10:37:05.161Z,5.06
2023-05-10T10:38:04.725Z,4.88
2023-05-10T10:39:04.723Z,4.70
2023-05-10T10:40:04.693Z,4.43
2023-05-10T10:41:04.732Z,4.63
2023-05-10T10:42:05.164Z,5.64
2023-05-10T10:43:04.675Z,6.32
2023-05-10T10:44:04.685Z,7.02
2023-05-10T10:45:04.682Z,7.26
2023-05-10T10:46:04.658Z,6.74
2023-05-10T10:47:05.249Z,7.06
2023-05-10T10:48:04.741Z,7.15
2023-05-10T10:49:04.745Z,7.10
2023-05-10T10:50:04.687Z,6.79
2023-05-10T10:51:04.662Z,6.26
2023-05-10T10:52:04.684Z,6.19
2023-05-10T10:53:04.685Z,6.46
2023-05-10T10:54:04.665Z,6.76
2023-05-10T10:55:05.667Z,6.77
2023-05-10T10:56:04.694Z,11.84
2023-05-10T10:57:04.743Z,15.05
2023-05-10T10:58:04.720Z,13.05
2023-05-10T10:59:04.780Z,15.17
2023-05-10T11:00:04.791Z,15.39
2023-05-10T11:01:04.889Z,11.95
2023-05-10T11:02:04.849Z,11.28
2023-05-10T11:03:04.884Z,7.74
2023-05-10T11:04:04.960Z,5.54
2023-05-10T11:05:04.894Z,12.95
2023-05-10T11:06:04.958Z,11.46
2023-05-10T11:07:05.168Z,9.02
2023-05-10T11:08:04.967Z,7.13
2023-05-10T11:09:04.984Z,5.49
2023-05-10T11:10:05.026Z,4.68
2023-05-10T11:11:05.050Z,4.61
2023-05-10T11:12:05.067Z,4.70
2023-05-10T11:13:05.097Z,4.66
2023-05-10T11:14:05.105Z,4.94
2023-05-10T11:15:05.212Z,4.77
2023-05-10T11:16:05.144Z,4.83
2023-05-10T11:17:05.221Z,5.51
2023-05-10T11:18:05.261Z,4.93
2023-05-10T11:19:05.281Z,4.12
2023-05-10T11:20:05.255Z,4.37
2023-05-10T11:21:05.248Z,4.11
2023-05-10T11:22:05.694Z,10.23
2023-05-10T11:23:05.310Z,24.90
2023-05-10T11:24:05.291Z,29.65
2023-05-10T11:25:05.267Z,24.12
2023-05-10T11:26:05.337Z,20.74
2023-05-10T11:27:05.730Z,22.86
2023-05-10T11:28:05.322Z,26.54
2023-05-10T11:29:05.395Z,33.96
2023-05-10T11:30:05.351Z,37.80
2023-05-10T11:31:05.500Z,37.89
2023-05-10T11:32:05.498Z,33.65
2023-05-10T11:33:05.755Z,34.04
2023-05-10T11:34:05.537Z,38.47
2023-05-10T11:35:05.581Z,42.60
2023-05-10T11:36:05.603Z,50.44
2023-05-10T11:37:05.623Z,54.05
2023-05-10T11:38:05.718Z,49.73
2023-05-10T11:39:05.726Z,49.12
2023-05-10T11:40:05.724Z,40.62
2023-05-10T11:41:05.774Z,22.66
2023-05-10T11:42:05.827Z,17.56
2023-05-10T11:43:05.848Z,17.30
2023-05-10T11:44:05.895Z,17.66
2023-05-10T11:45:05.936Z,20.46
2023-05-10T11:46:05.988Z,23.73
2023-05-10T11:47:05.977Z,20.57
2023-05-10T11:48:06.072Z,18.46
2023-05-10T11:49:06.033Z,12.76
2023-05-10T11:50:06.054Z,9.70
2023-05-10T11:51:06.112Z,10.10
2023-05-10T11:52:06.162Z,11.66
2023-05-10T11:53:06.181Z,10.33
2023-05-10T11:54:06.214Z,8.71
2023-05-10T11:55:06.232Z,8.09
2023-05-10T11:56:06.330Z,8.79
2023-05-10T11:57:06.306Z,9.10
2023-05-10T11:58:06.356Z,7.52
2023-05-10T11:59:06.313Z,7.18
2023-05-10T12:00:06.376Z,5.88
2023-05-10T12:01:06.410Z,5.82
2023-05-10T12:02:06.427Z,5.59
2023-05-10T12:03:06.534Z,7.33
2023-05-10T12:04:06.615Z,8.63
2023-05-10T12:05:06.638Z,8.05
2023-05-10T12:06:06.572Z,8.54
2023-05-10T12:07:06.631Z,8.24
2023-05-10T12:08:06.662Z,9.86
2023-05-10T12:09:06.751Z,11.63
2023-05-10T12:10:06.746Z,12.73
2023-05-10T12:11:06.765Z,14.12
2023-05-10T12:12:06.815Z,14.90
2023-05-10T12:13:06.849Z,15.42
2023-05-10T12:14:06.905Z,15.60
2023-05-10T12:15:06.913Z,16.47
2023-05-10T12:16:06.976Z,16.71
2023-05-10T12:17:07.010Z,16.74
2023-05-10T12:18:07.069Z,16.72
2023-05-10T12:19:07.083Z,16.38
2023-05-10T12:20:07.105Z,16.90
2023-05-10T12:21:07.168Z,17.07
2023-05-10T12:22:07.169Z,17.41
2023-05-10T12:23:07.190Z,17.40
2023-05-10T12:24:07.306Z,17.22
2023-05-10T12:25:07.277Z,17.24
2023-05-10T12:26:07.360Z,17.44
2023-05-10T12:27:07.327Z,17.64
2023-05-10T12:28:07.439Z,16.33
2023-05-10T12:29:07.427Z,12.62
2023-05-10T12:30:07.460Z,11.08
2023-05-10T12:31:07.522Z,10.31
2023-05-10T12:32:07.607Z,10.57
2023-05-10T12:33:07.580Z,10.86
2023-05-10T12:34:07.620Z,12.32
2023-05-10T12:35:07.629Z,14.00
2023-05-10T12:36:07.626Z,14.91
2023-05-10T12:37:07.717Z,10.61
2023-05-10T12:38:07.746Z,7.94
2023-05-10T12:39:07.739Z,7.83
2023-05-10T12:40:07.786Z,8.65
2023-05-10T12:41:07.842Z,9.50
2023-05-10T12:42:07.885Z,10.83
2023-05-10T12:43:07.905Z,12.20
2023-05-10T12:44:07.918Z,15.91
2023-05-10T12:45:08.004Z,46.44
2023-05-10T12:46:08.096Z,55.96
2023-05-10T12:47:08.001Z,93.74
2023-05-10T12:48:08.061Z,115.49
2023-05-10T12:49:09.726Z,167.35
2023-05-10T12:50:08.073Z,148.39
2023-05-10T12:51:08.130Z,116.46
2023-05-10T12:52:08.169Z,108.41
2023-05-10T12:53:08.198Z,100.60